sensor_id;sensor_type;location;lat;lon;timestamp;temperature;humidity
11136;DHT22;5622;50.840;4.948;2022-12-29T00:01:38;11.40;99.90
11136;DHT22;5622;50.840;4.948;2022-12-29T00:04:05;11.40;99.90
11136;DHT22;5622;50.840;4.948;2022-12-29T00:06:32;11.40;99.90
11136;DHT22;5622;50.840;4.948;2022-12-29T00:08:59;11.40;99.90
11136;DHT22;5622;50.840;4.948;2022-12-29T00:11:28;11.40;99.90
11136;DHT22;5622;50.840;4.948;2022-12-29T00:13:55;11.40;99.90
11136;DHT22;5622;50.840;4.948;2022-12-29T00:16:41;11.40;99.90
11136;DHT22;5622;50.840;4.948;2022-12-29T00:19:09;11.40;99.90
11136;DHT22;5622;50.840;4.948;2022-12-29T00:21:57;11.40;99.90
11136;DHT22;5622;50.840;4.948;2022-12-29T00:24:41;11.40;99.90
11136;DHT22;5622;50.840;4.948;2022-12-29T00:27:28;11.40;99.90
11136;DHT22;5622;50.840;4.948;2022-12-29T00:30:15;11.40;99.90
11136;DHT22;5622;50.840;4.948;2022-12-29T00:33:00;11.40;99.90
11136;DHT22;5622;50.840;4.948;2022-12-29T00:35:47;11.40;99.90
11136;DHT22;5622;50.840;4.948;2022-12-29T00:38:18;11.40;99.90
11136;DHT22;5622;50.840;4.948;2022-12-29T00:41:03;11.30;99.90
11136;DHT22;5622;50.840;4.948;2022-12-29T00:43:48;11.30;99.90
11136;DHT22;5622;50.840;4.948;2022-12-29T00:46:36;11.40;99.90
11136;DHT22;5622;50.840;4.948;2022-12-29T00:49:04;11.40;99.90
11136;DHT22;5622;50.840;4.948;2022-12-29T00:51:50;11.40;99.90
11136;DHT22;5622;50.840;4.948;2022-12-29T00:54:17;11.40;99.90
11136;DHT22;5622;50.840;4.948;2022-12-29T00:56:46;11.40;99.90
11136;DHT22;5622;50.840;4.948;2022-12-29T00:59:15;11.30;99.90
11136;DHT22;5622;50.840;4.948;2022-12-29T01:01:43;11.30;99.90
11136;DHT22;5622;50.840;4.948;2022-12-29T01:04:11;11.30;99.90
11136;DHT22;5622;50.840;4.948;2022-12-29T01:06:39;11.30;99.90
11136;DHT22;5622;50.840;4.948;2022-12-29T01:09:08;11.30;99.90
11136;DHT22;5622;50.840;4.948;2022-12-29T01:11:53;11.40;99.90
11136;DHT22;5622;50.840;4.948;2022-12-29T01:14:22;11.40;99.90
11136;DHT22;5622;50.840;4.948;2022-12-29T01:16:50;11.30;99.90
11136;DHT22;5622;50.840;4.948;2022-12-29T01:19:18;11.40;99.90
11136;DHT22;5622;50.840;4.948;2022-12-29T01:21:45;11.40;99.90
11136;DHT22;5622;50.840;4.948;2022-12-29T01:24:13;11.40;99.90
11136;DHT22;5622;50.840;4.948;2022-12-29T01:26:40;11.40;99.90
11136;DHT22;5622;50.840;4.948;2022-12-29T01:29:07;11.50;99.90
11136;DHT22;5622;50.840;4.948;2022-12-29T01:31:36;11.50;99.90
11136;DHT22;5622;50.840;4.948;2022-12-29T01:34:03;11.50;99.90
11136;DHT22;5622;50.840;4.948;2022-12-29T01:36:31;11.40;99.90
11136;DHT22;5622;50.840;4.948;2022-12-29T01:38:58;11.40;99.90
11136;DHT22;5622;50.840;4.948;2022-12-29T01:41:26;11.40;99.90
11136;DHT22;5622;50.840;4.948;2022-12-29T01:43:54;11.30;99.90
11136;DHT22;5622;50.840;4.948;2022-12-29T01:46:25;11.30;99.90
11136;DHT22;5622;50.840;4.948;2022-12-29T01:48:59;11.20;99.90
11136;DHT22;5622;50.840;4.948;2022-12-29T01:51:31;11.20;99.90
11136;DHT22;5622;50.840;4.948;2022-12-29T01:54:03;11.10;99.90
11136;DHT22;5622;50.840;4.948;2022-12-29T01:56:32;11.10;99.90
11136;DHT22;5622;50.840;4.948;2022-12-29T01:59:04;11.10;99.90
11136;DHT22;5622;50.840;4.948;2022-12-29T02:01:32;11.00;99.90
11136;DHT22;5622;50.840;4.948;2022-12-29T02:04:01;11.00;99.90
11136;DHT22;5622;50.840;4.948;2022-12-29T02:06:32;11.00;99.90
11136;DHT22;5622;50.840;4.948;2022-12-29T02:09:00;11.00;99.90
11136;DHT22;5622;50.840;4.948;2022-12-29T02:11:29;11.00;99.90
11136;DHT22;5622;50.840;4.948;2022-12-29T02:13:57;11.10;99.90
11136;DHT22;5622;50.840;4.948;2022-12-29T02:16:32;11.00;99.90
11136;DHT22;5622;50.840;4.948;2022-12-29T02:19:25;11.00;99.90
11136;DHT22;5622;50.840;4.948;2022-12-29T02:22:05;11.10;99.90
11136;DHT22;5622;50.840;4.948;2022-12-29T02:30:52;11.10;99.90
11136;DHT22;5622;50.840;4.948;2022-12-29T02:33:34;11.10;99.90
11136;DHT22;5622;50.840;4.948;2022-12-29T02:36:09;11.10;99.90
11136;DHT22;5622;50.840;4.948;2022-12-29T02:38:48;11.00;99.90
11136;DHT22;5622;50.840;4.948;2022-12-29T02:41:20;11.00;99.90
11136;DHT22;5622;50.840;4.948;2022-12-29T02:43:53;10.90;99.90
11136;DHT22;5622;50.840;4.948;2022-12-29T02:46:28;10.90;99.90
11136;DHT22;5622;50.840;4.948;2022-12-29T02:49:08;10.90;99.90
11136;DHT22;5622;50.840;4.948;2022-12-29T02:51:52;10.80;99.90
11136;DHT22;5622;50.840;4.948;2022-12-29T02:54:22;10.90;99.90
11136;DHT22;5622;50.840;4.948;2022-12-29T02:57:12;10.90;99.90
11136;DHT22;5622;50.840;4.948;2022-12-29T02:59:41;10.90;99.90
11136;DHT22;5622;50.840;4.948;2022-12-29T03:02:29;10.90;99.90
11136;DHT22;5622;50.840;4.948;2022-12-29T03:05:20;10.90;99.90
11136;DHT22;5622;50.840;4.948;2022-12-29T03:07:55;10.90;99.90
11136;DHT22;5622;50.840;4.948;2022-12-29T03:10:35;10.90;99.90
11136;DHT22;5622;50.840;4.948;2022-12-29T03:13:10;10.90;99.90
11136;DHT22;5622;50.840;4.948;2022-12-29T03:16:02;10.90;99.90
11136;DHT22;5622;50.840;4.948;2022-12-29T03:18:44;10.90;99.90
11136;DHT22;5622;50.840;4.948;2022-12-29T03:21:17;10.90;99.90
11136;DHT22;5622;50.840;4.948;2022-12-29T03:23:48;10.90;99.90
11136;DHT22;5622;50.840;4.948;2022-12-29T03:26:17;10.90;99.90
11136;DHT22;5622;50.840;4.948;2022-12-29T03:28:50;10.90;99.90
11136;DHT22;5622;50.840;4.948;2022-12-29T03:31:19;10.90;99.90
11136;DHT22;5622;50.840;4.948;2022-12-29T03:33:49;10.90;99.90
11136;DHT22;5622;50.840;4.948;2022-12-29T03:36:32;10.90;99.90
11136;DHT22;5622;50.840;4.948;2022-12-29T03:39:08;10.90;99.90
11136;DHT22;5622;50.840;4.948;2022-12-29T03:41:38;10.90;99.90
11136;DHT22;5622;50.840;4.948;2022-12-29T03:44:07;10.90;99.90
11136;DHT22;5622;50.840;4.948;2022-12-29T03:46:34;10.80;99.90
11136;DHT22;5622;50.840;4.948;2022-12-29T03:49:02;10.80;99.90
11136;DHT22;5622;50.840;4.948;2022-12-29T03:51:30;10.70;99.90
11136;DHT22;5622;50.840;4.948;2022-12-29T03:53:57;10.70;99.90
11136;DHT22;5622;50.840;4.948;2022-12-29T03:56:24;10.80;99.90
11136;DHT22;5622;50.840;4.948;2022-12-29T03:58:51;10.80;99.90
11136;DHT22;5622;50.840;4.948;2022-12-29T04:01:18;10.80;99.90
11136;DHT22;5622;50.840;4.948;2022-12-29T04:03:45;10.80;99.90
11136;DHT22;5622;50.840;4.948;2022-12-29T04:06:13;10.70;99.90
11136;DHT22;5622;50.840;4.948;2022-12-29T04:08:40;10.70;99.90
11136;DHT22;5622;50.840;4.948;2022-12-29T04:11:07;10.60;99.90
11136;DHT22;5622;50.840;4.948;2022-12-29T04:13:34;10.60;99.90
11136;DHT22;5622;50.840;4.948;2022-12-29T04:16:03;10.60;99.90
11136;DHT22;5622;50.840;4.948;2022-12-29T04:18:30;10.60;99.90
11136;DHT22;5622;50.840;4.948;2022-12-29T04:20:57;10.60;99.90
11136;DHT22;5622;50.840;4.948;2022-12-29T04:23:30;10.50;99.90
11136;DHT22;5622;50.840;4.948;2022-12-29T04:25:58;10.60;99.90
11136;DHT22;5622;50.840;4.948;2022-12-29T04:28:26;10.60;99.90
11136;DHT22;5622;50.840;4.948;2022-12-29T04:30:53;10.50;99.90
11136;DHT22;5622;50.840;4.948;2022-12-29T04:33:21;10.50;99.90
11136;DHT22;5622;50.840;4.948;2022-12-29T04:35:48;10.50;99.90
11136;DHT22;5622;50.840;4.948;2022-12-29T04:38:17;10.50;99.90
11136;DHT22;5622;50.840;4.948;2022-12-29T04:40:45;10.50;99.90
11136;DHT22;5622;50.840;4.948;2022-12-29T04:43:13;10.40;99.90
11136;DHT22;5622;50.840;4.948;2022-12-29T04:45:43;10.40;99.90
11136;DHT22;5622;50.840;4.948;2022-12-29T04:48:10;10.40;99.90
11136;DHT22;5622;50.840;4.948;2022-12-29T04:50:37;10.40;99.90
11136;DHT22;5622;50.840;4.948;2022-12-29T04:53:04;10.40;99.90
11136;DHT22;5622;50.840;4.948;2022-12-29T04:55:31;10.40;99.90
11136;DHT22;5622;50.840;4.948;2022-12-29T04:58:00;10.40;99.90
11136;DHT22;5622;50.840;4.948;2022-12-29T05:00:27;10.40;99.90
11136;DHT22;5622;50.840;4.948;2022-12-29T05:02:54;10.40;99.90
11136;DHT22;5622;50.840;4.948;2022-12-29T05:05:21;10.40;99.90
11136;DHT22;5622;50.840;4.948;2022-12-29T05:07:48;10.50;99.90
11136;DHT22;5622;50.840;4.948;2022-12-29T05:10:16;10.50;99.90
11136;DHT22;5622;50.840;4.948;2022-12-29T05:12:43;10.50;99.90
11136;DHT22;5622;50.840;4.948;2022-12-29T05:15:12;10.50;99.90
11136;DHT22;5622;50.840;4.948;2022-12-29T05:17:40;10.60;99.90
11136;DHT22;5622;50.840;4.948;2022-12-29T05:20:08;10.50;99.90
11136;DHT22;5622;50.840;4.948;2022-12-29T05:22:35;10.60;99.90
11136;DHT22;5622;50.840;4.948;2022-12-29T05:25:03;10.60;99.90
11136;DHT22;5622;50.840;4.948;2022-12-29T05:27:30;10.60;99.90
11136;DHT22;5622;50.840;4.948;2022-12-29T05:29:57;10.60;99.90
11136;DHT22;5622;50.840;4.948;2022-12-29T05:32:25;10.70;99.90
11136;DHT22;5622;50.840;4.948;2022-12-29T05:34:53;10.70;99.90
11136;DHT22;5622;50.840;4.948;2022-12-29T05:37:20;10.70;99.90
11136;DHT22;5622;50.840;4.948;2022-12-29T05:39:47;10.70;99.90
11136;DHT22;5622;50.840;4.948;2022-12-29T05:42:14;10.80;99.90
11136;DHT22;5622;50.840;4.948;2022-12-29T05:44:41;10.80;99.90
11136;DHT22;5622;50.840;4.948;2022-12-29T05:47:08;10.80;99.90
11136;DHT22;5622;50.840;4.948;2022-12-29T05:49:36;10.80;99.90
11136;DHT22;5622;50.840;4.948;2022-12-29T05:52:04;10.80;99.90
11136;DHT22;5622;50.840;4.948;2022-12-29T05:54:31;10.80;99.90
11136;DHT22;5622;50.840;4.948;2022-12-29T05:56:58;10.80;99.90
11136;DHT22;5622;50.840;4.948;2022-12-29T05:59:25;10.70;99.90
11136;DHT22;5622;50.840;4.948;2022-12-29T06:01:52;10.70;99.90
11136;DHT22;5622;50.840;4.948;2022-12-29T06:04:19;10.70;99.90
11136;DHT22;5622;50.840;4.948;2022-12-29T06:06:47;10.70;99.90
11136;DHT22;5622;50.840;4.948;2022-12-29T06:09:15;10.70;99.90
11136;DHT22;5622;50.840;4.948;2022-12-29T06:11:42;10.70;99.90
11136;DHT22;5622;50.840;4.948;2022-12-29T06:14:09;10.70;99.90
11136;DHT22;5622;50.840;4.948;2022-12-29T06:16:36;10.70;99.90
11136;DHT22;5622;50.840;4.948;2022-12-29T06:19:03;10.70;99.90
11136;DHT22;5622;50.840;4.948;2022-12-29T06:21:30;10.70;99.90
11136;DHT22;5622;50.840;4.948;2022-12-29T06:23:59;10.70;99.90
11136;DHT22;5622;50.840;4.948;2022-12-29T06:26:26;10.70;99.90
11136;DHT22;5622;50.840;4.948;2022-12-29T06:28:53;10.60;99.90
11136;DHT22;5622;50.840;4.948;2022-12-29T06:31:20;10.60;99.90
11136;DHT22;5622;50.840;4.948;2022-12-29T06:33:47;10.70;99.90
11136;DHT22;5622;50.840;4.948;2022-12-29T06:36:15;10.70;99.90
11136;DHT22;5622;50.840;4.948;2022-12-29T06:38:42;10.70;99.90
11136;DHT22;5622;50.840;4.948;2022-12-29T06:41:10;10.70;99.90
11136;DHT22;5622;50.840;4.948;2022-12-29T06:43:37;10.70;99.90
11136;DHT22;5622;50.840;4.948;2022-12-29T06:46:04;10.70;99.90
11136;DHT22;5622;50.840;4.948;2022-12-29T06:48:31;10.70;99.90
11136;DHT22;5622;50.840;4.948;2022-12-29T06:50:59;10.70;99.90
11136;DHT22;5622;50.840;4.948;2022-12-29T06:53:26;10.70;99.90
11136;DHT22;5622;50.840;4.948;2022-12-29T06:55:53;10.70;99.90
11136;DHT22;5622;50.840;4.948;2022-12-29T06:58:21;10.80;99.90
11136;DHT22;5622;50.840;4.948;2022-12-29T07:00:49;10.80;99.90
11136;DHT22;5622;50.840;4.948;2022-12-29T07:03:16;10.80;99.90
11136;DHT22;5622;50.840;4.948;2022-12-29T07:05:43;10.70;99.90
11136;DHT22;5622;50.840;4.948;2022-12-29T07:08:10;10.70;99.90
11136;DHT22;5622;50.840;4.948;2022-12-29T07:10:37;10.70;99.90
11136;DHT22;5622;50.840;4.948;2022-12-29T07:13:04;10.70;99.90
11136;DHT22;5622;50.840;4.948;2022-12-29T07:15:35;10.70;99.90
11136;DHT22;5622;50.840;4.948;2022-12-29T07:18:02;10.60;99.90
11136;DHT22;5622;50.840;4.948;2022-12-29T07:20:29;10.60;99.90
11136;DHT22;5622;50.840;4.948;2022-12-29T07:22:57;10.60;99.90
11136;DHT22;5622;50.840;4.948;2022-12-29T07:25:24;10.50;99.90
11136;DHT22;5622;50.840;4.948;2022-12-29T07:27:51;10.40;99.90
11136;DHT22;5622;50.840;4.948;2022-12-29T07:30:18;10.40;99.90
11136;DHT22;5622;50.840;4.948;2022-12-29T07:32:47;10.40;99.90
11136;DHT22;5622;50.840;4.948;2022-12-29T07:35:14;10.40;99.90
11136;DHT22;5622;50.840;4.948;2022-12-29T07:37:41;10.50;99.90
11136;DHT22;5622;50.840;4.948;2022-12-29T07:40:09;10.50;99.90
11136;DHT22;5622;50.840;4.948;2022-12-29T07:42:38;10.50;99.90
11136;DHT22;5622;50.840;4.948;2022-12-29T07:45:06;10.40;99.90
11136;DHT22;5622;50.840;4.948;2022-12-29T07:47:34;10.40;99.90
11136;DHT22;5622;50.840;4.948;2022-12-29T07:50:04;10.40;99.90
11136;DHT22;5622;50.840;4.948;2022-12-29T07:52:31;10.30;99.90
11136;DHT22;5622;50.840;4.948;2022-12-29T07:54:58;10.30;99.90
11136;DHT22;5622;50.840;4.948;2022-12-29T07:57:25;10.30;99.90
11136;DHT22;5622;50.840;4.948;2022-12-29T07:59:52;10.30;99.90
11136;DHT22;5622;50.840;4.948;2022-12-29T08:02:19;10.30;99.90
11136;DHT22;5622;50.840;4.948;2022-12-29T08:04:46;10.40;99.90
11136;DHT22;5622;50.840;4.948;2022-12-29T08:07:15;10.30;99.90
11136;DHT22;5622;50.840;4.948;2022-12-29T08:09:42;10.30;99.90
11136;DHT22;5622;50.840;4.948;2022-12-29T08:12:10;10.40;99.90
11136;DHT22;5622;50.840;4.948;2022-12-29T08:14:37;10.40;99.90
11136;DHT22;5622;50.840;4.948;2022-12-29T08:17:04;10.40;99.90
11136;DHT22;5622;50.840;4.948;2022-12-29T08:19:31;10.40;99.90
11136;DHT22;5622;50.840;4.948;2022-12-29T08:21:58;10.40;99.90
11136;DHT22;5622;50.840;4.948;2022-12-29T08:24:26;10.40;99.90
11136;DHT22;5622;50.840;4.948;2022-12-29T08:26:54;10.30;99.90
11136;DHT22;5622;50.840;4.948;2022-12-29T08:29:21;10.40;99.90
11136;DHT22;5622;50.840;4.948;2022-12-29T08:31:48;10.40;99.90
11136;DHT22;5622;50.840;4.948;2022-12-29T08:34:15;10.40;99.90
11136;DHT22;5622;50.840;4.948;2022-12-29T08:36:43;10.40;99.90
11136;DHT22;5622;50.840;4.948;2022-12-29T08:39:10;10.40;99.90
11136;DHT22;5622;50.840;4.948;2022-12-29T08:41:38;10.40;99.90
11136;DHT22;5622;50.840;4.948;2022-12-29T08:44:05;10.40;99.90
11136;DHT22;5622;50.840;4.948;2022-12-29T08:46:32;10.40;99.90
11136;DHT22;5622;50.840;4.948;2022-12-29T08:48:59;10.30;99.90
11136;DHT22;5622;50.840;4.948;2022-12-29T08:51:27;10.30;99.90
11136;DHT22;5622;50.840;4.948;2022-12-29T08:53:54;10.30;99.90
11136;DHT22;5622;50.840;4.948;2022-12-29T08:56:21;10.30;99.90
11136;DHT22;5622;50.840;4.948;2022-12-29T08:58:50;10.30;99.90
11136;DHT22;5622;50.840;4.948;2022-12-29T09:01:18;10.30;99.90
11136;DHT22;5622;50.840;4.948;2022-12-29T09:03:45;10.30;99.90
11136;DHT22;5622;50.840;4.948;2022-12-29T09:06:13;10.30;99.90
11136;DHT22;5622;50.840;4.948;2022-12-29T09:08:41;10.30;99.90
11136;DHT22;5622;50.840;4.948;2022-12-29T09:11:09;10.30;99.90
11136;DHT22;5622;50.840;4.948;2022-12-29T09:13:37;10.30;99.90
11136;DHT22;5622;50.840;4.948;2022-12-29T09:16:06;10.30;99.90
11136;DHT22;5622;50.840;4.948;2022-12-29T09:18:34;10.20;99.90
11136;DHT22;5622;50.840;4.948;2022-12-29T09:21:03;10.20;99.90
11136;DHT22;5622;50.840;4.948;2022-12-29T09:23:31;10.20;99.90
11136;DHT22;5622;50.840;4.948;2022-12-29T09:25:58;10.10;99.90
11136;DHT22;5622;50.840;4.948;2022-12-29T09:28:25;10.20;99.90
11136;DHT22;5622;50.840;4.948;2022-12-29T09:30:55;10.10;99.90
11136;DHT22;5622;50.840;4.948;2022-12-29T09:33:24;10.20;99.90
11136;DHT22;5622;50.840;4.948;2022-12-29T09:35:52;10.20;99.90
11136;DHT22;5622;50.840;4.948;2022-12-29T09:38:20;10.20;99.90
11136;DHT22;5622;50.840;4.948;2022-12-29T09:40:50;10.20;99.90
11136;DHT22;5622;50.840;4.948;2022-12-29T09:43:29;10.20;99.90
11136;DHT22;5622;50.840;4.948;2022-12-29T09:46:06;10.30;99.90
11136;DHT22;5622;50.840;4.948;2022-12-29T09:48:41;10.20;99.90
11136;DHT22;5622;50.840;4.948;2022-12-29T09:51:13;10.30;99.90
11136;DHT22;5622;50.840;4.948;2022-12-29T09:53:42;10.30;99.90
11136;DHT22;5622;50.840;4.948;2022-12-29T09:56:15;10.30;99.90
11136;DHT22;5622;50.840;4.948;2022-12-29T09:58:47;10.30;99.90
11136;DHT22;5622;50.840;4.948;2022-12-29T10:01:24;10.40;99.90
11136;DHT22;5622;50.840;4.948;2022-12-29T10:03:56;10.40;99.90
11136;DHT22;5622;50.840;4.948;2022-12-29T10:06:26;10.40;99.90
11136;DHT22;5622;50.840;4.948;2022-12-29T10:09:02;10.40;99.90
11136;DHT22;5622;50.840;4.948;2022-12-29T10:11:49;10.30;99.90
11136;DHT22;5622;50.840;4.948;2022-12-29T10:14:42;10.30;99.90
11136;DHT22;5622;50.840;4.948;2022-12-29T10:17:24;10.30;99.90
11136;DHT22;5622;50.840;4.948;2022-12-29T10:20:04;10.20;99.90
11136;DHT22;5622;50.840;4.948;2022-12-29T10:22:43;10.30;99.90
11136;DHT22;5622;50.840;4.948;2022-12-29T10:25:18;10.30;99.90
11136;DHT22;5622;50.840;4.948;2022-12-29T10:27:47;10.30;99.90
11136;DHT22;5622;50.840;4.948;2022-12-29T10:30:16;10.40;99.90
11136;DHT22;5622;50.840;4.948;2022-12-29T10:32:47;10.40;99.90
11136;DHT22;5622;50.840;4.948;2022-12-29T10:35:17;10.40;99.90
11136;DHT22;5622;50.840;4.948;2022-12-29T10:37:50;10.40;99.90
11136;DHT22;5622;50.840;4.948;2022-12-29T10:40:24;10.50;99.90
11136;DHT22;5622;50.840;4.948;2022-12-29T10:42:54;10.50;99.90
11136;DHT22;5622;50.840;4.948;2022-12-29T10:45:23;10.50;99.90
11136;DHT22;5622;50.840;4.948;2022-12-29T10:47:55;10.60;99.90
11136;DHT22;5622;50.840;4.948;2022-12-29T10:50:26;10.60;99.90
11136;DHT22;5622;50.840;4.948;2022-12-29T10:52:56;10.60;99.90
11136;DHT22;5622;50.840;4.948;2022-12-29T10:55:28;10.70;99.90
11136;DHT22;5622;50.840;4.948;2022-12-29T10:58:00;10.70;99.90
11136;DHT22;5622;50.840;4.948;2022-12-29T11:00:31;10.80;99.90
11136;DHT22;5622;50.840;4.948;2022-12-29T11:06:03;10.80;99.90
11136;DHT22;5622;50.840;4.948;2022-12-29T11:08:36;10.80;99.90
11136;DHT22;5622;50.840;4.948;2022-12-29T11:11:05;10.80;99.90
11136;DHT22;5622;50.840;4.948;2022-12-29T11:13:35;10.80;99.90
11136;DHT22;5622;50.840;4.948;2022-12-29T11:16:02;10.80;99.90
11136;DHT22;5622;50.840;4.948;2022-12-29T11:18:33;10.80;99.90
11136;DHT22;5622;50.840;4.948;2022-12-29T11:21:06;10.80;99.90
11136;DHT22;5622;50.840;4.948;2022-12-29T11:23:35;10.70;99.90
11136;DHT22;5622;50.840;4.948;2022-12-29T11:26:14;10.70;99.90
11136;DHT22;5622;50.840;4.948;2022-12-29T11:28:43;10.70;99.90
11136;DHT22;5622;50.840;4.948;2022-12-29T11:31:16;10.70;99.90
11136;DHT22;5622;50.840;4.948;2022-12-29T11:33:43;10.70;99.90
11136;DHT22;5622;50.840;4.948;2022-12-29T11:36:15;10.70;99.90
11136;DHT22;5622;50.840;4.948;2022-12-29T11:38:48;10.70;99.90
11136;DHT22;5622;50.840;4.948;2022-12-29T11:41:21;10.70;99.90
11136;DHT22;5622;50.840;4.948;2022-12-29T11:43:49;10.80;99.90
11136;DHT22;5622;50.840;4.948;2022-12-29T11:46:19;10.70;99.90
11136;DHT22;5622;50.840;4.948;2022-12-29T11:48:47;10.80;99.90
11136;DHT22;5622;50.840;4.948;2022-12-29T11:51:23;10.70;99.90
11136;DHT22;5622;50.840;4.948;2022-12-29T11:53:55;10.70;99.90
11136;DHT22;5622;50.840;4.948;2022-12-29T11:56:34;10.70;99.90
11136;DHT22;5622;50.840;4.948;2022-12-29T11:59:24;10.70;99.90
11136;DHT22;5622;50.840;4.948;2022-12-29T12:05:01;10.70;99.90
11136;DHT22;5622;50.840;4.948;2022-12-29T12:07:39;10.70;99.90
11136;DHT22;5622;50.840;4.948;2022-12-29T12:10:21;10.70;99.90
11136;DHT22;5622;50.840;4.948;2022-12-29T12:12:55;10.70;99.90
11136;DHT22;5622;50.840;4.948;2022-12-29T12:15:28;10.70;99.90
11136;DHT22;5622;50.840;4.948;2022-12-29T12:18:02;10.60;99.90
11136;DHT22;5622;50.840;4.948;2022-12-29T12:20:42;10.70;99.90
11136;DHT22;5622;50.840;4.948;2022-12-29T12:23:25;10.70;99.90
11136;DHT22;5622;50.840;4.948;2022-12-29T12:26:01;10.70;99.90
11136;DHT22;5622;50.840;4.948;2022-12-29T12:28:37;10.70;99.90
11136;DHT22;5622;50.840;4.948;2022-12-29T12:31:16;10.70;99.90
11136;DHT22;5622;50.840;4.948;2022-12-29T12:33:47;10.70;99.90
11136;DHT22;5622;50.840;4.948;2022-12-29T12:36:35;10.70;99.90
11136;DHT22;5622;50.840;4.948;2022-12-29T12:39:12;10.60;99.90
11136;DHT22;5622;50.840;4.948;2022-12-29T12:41:55;10.70;99.90
11136;DHT22;5622;50.840;4.948;2022-12-29T12:44:33;10.70;99.90
11136;DHT22;5622;50.840;4.948;2022-12-29T12:47:24;10.70;99.90
11136;DHT22;5622;50.840;4.948;2022-12-29T12:50:26;10.70;99.90
11136;DHT22;5622;50.840;4.948;2022-12-29T12:53:10;10.70;99.90
11136;DHT22;5622;50.840;4.948;2022-12-29T12:55:56;10.70;99.90
11136;DHT22;5622;50.840;4.948;2022-12-29T12:58:32;10.70;99.90
11136;DHT22;5622;50.840;4.948;2022-12-29T13:01:14;10.70;99.90
11136;DHT22;5622;50.840;4.948;2022-12-29T13:03:52;10.70;99.90
11136;DHT22;5622;50.840;4.948;2022-12-29T13:06:31;10.70;99.90
11136;DHT22;5622;50.840;4.948;2022-12-29T13:09:17;10.60;99.90
11136;DHT22;5622;50.840;4.948;2022-12-29T13:12:01;10.60;99.90
11136;DHT22;5622;50.840;4.948;2022-12-29T13:14:40;10.60;99.90
11136;DHT22;5622;50.840;4.948;2022-12-29T13:17:14;10.60;99.90
11136;DHT22;5622;50.840;4.948;2022-12-29T13:19:49;10.60;99.90
11136;DHT22;5622;50.840;4.948;2022-12-29T13:22:24;10.60;99.90
11136;DHT22;5622;50.840;4.948;2022-12-29T13:25:04;10.60;99.90
11136;DHT22;5622;50.840;4.948;2022-12-29T13:27:42;10.60;99.90
11136;DHT22;5622;50.840;4.948;2022-12-29T13:30:15;10.60;99.90
11136;DHT22;5622;50.840;4.948;2022-12-29T13:32:53;10.60;99.90
11136;DHT22;5622;50.840;4.948;2022-12-29T13:35:34;10.60;99.90
11136;DHT22;5622;50.840;4.948;2022-12-29T13:38:08;10.60;99.90
11136;DHT22;5622;50.840;4.948;2022-12-29T13:40:41;10.60;99.90
11136;DHT22;5622;50.840;4.948;2022-12-29T13:43:12;10.70;99.90
11136;DHT22;5622;50.840;4.948;2022-12-29T13:45:41;10.60;99.90
11136;DHT22;5622;50.840;4.948;2022-12-29T13:48:15;10.60;99.90
11136;DHT22;5622;50.840;4.948;2022-12-29T13:50:48;10.50;99.90
11136;DHT22;5622;50.840;4.948;2022-12-29T13:53:23;10.40;99.90
11136;DHT22;5622;50.840;4.948;2022-12-29T13:55:55;10.30;99.90
11136;DHT22;5622;50.840;4.948;2022-12-29T13:58:32;10.10;99.90
11136;DHT22;5622;50.840;4.948;2022-12-29T14:01:08;10.00;99.90
11136;DHT22;5622;50.840;4.948;2022-12-29T14:03:46;9.90;99.90
11136;DHT22;5622;50.840;4.948;2022-12-29T14:06:21;9.80;99.90
11136;DHT22;5622;50.840;4.948;2022-12-29T14:08:52;9.70;99.90
11136;DHT22;5622;50.840;4.948;2022-12-29T14:11:22;9.60;99.90
11136;DHT22;5622;50.840;4.948;2022-12-29T14:13:52;9.50;99.90
11136;DHT22;5622;50.840;4.948;2022-12-29T14:16:29;9.50;99.90
11136;DHT22;5622;50.840;4.948;2022-12-29T14:19:03;9.40;99.90
11136;DHT22;5622;50.840;4.948;2022-12-29T14:21:32;9.30;99.90
11136;DHT22;5622;50.840;4.948;2022-12-29T14:27:44;9.20;99.90
11136;DHT22;5622;50.840;4.948;2022-12-29T14:33:27;9.20;99.90
11136;DHT22;5622;50.840;4.948;2022-12-29T14:35:56;9.10;99.90
11136;DHT22;5622;50.840;4.948;2022-12-29T14:38:26;9.20;99.90
11136;DHT22;5622;50.840;4.948;2022-12-29T14:41:17;9.10;99.90
11136;DHT22;5622;50.840;4.948;2022-12-29T14:43:54;9.20;99.90
11136;DHT22;5622;50.840;4.948;2022-12-29T14:46:22;9.20;99.90
11136;DHT22;5622;50.840;4.948;2022-12-29T14:48:55;9.20;99.90
11136;DHT22;5622;50.840;4.948;2022-12-29T14:51:34;9.30;99.90
11136;DHT22;5622;50.840;4.948;2022-12-29T14:56:59;9.40;99.90
11136;DHT22;5622;50.840;4.948;2022-12-29T14:59:29;9.40;99.90
11136;DHT22;5622;50.840;4.948;2022-12-29T15:01:57;9.50;99.90
11136;DHT22;5622;50.840;4.948;2022-12-29T15:04:31;9.50;99.90
11136;DHT22;5622;50.840;4.948;2022-12-29T15:07:00;9.50;99.90
11136;DHT22;5622;50.840;4.948;2022-12-29T15:09:33;9.40;99.90
11136;DHT22;5622;50.840;4.948;2022-12-29T15:12:05;9.50;99.90
11136;DHT22;5622;50.840;4.948;2022-12-29T15:14:47;9.50;99.90
11136;DHT22;5622;50.840;4.948;2022-12-29T15:17:24;9.50;99.90
11136;DHT22;5622;50.840;4.948;2022-12-29T15:19:54;9.40;99.90
11136;DHT22;5622;50.840;4.948;2022-12-29T15:22:21;9.30;99.90
11136;DHT22;5622;50.840;4.948;2022-12-29T15:24:50;9.20;99.90
11136;DHT22;5622;50.840;4.948;2022-12-29T15:27:21;9.20;99.90
11136;DHT22;5622;50.840;4.948;2022-12-29T15:29:52;9.00;99.90
11136;DHT22;5622;50.840;4.948;2022-12-29T15:32:23;9.00;99.90
11136;DHT22;5622;50.840;4.948;2022-12-29T15:34:54;9.00;99.90
11136;DHT22;5622;50.840;4.948;2022-12-29T15:37:23;9.00;99.90
11136;DHT22;5622;50.840;4.948;2022-12-29T15:39:51;9.00;99.90
11136;DHT22;5622;50.840;4.948;2022-12-29T15:42:45;8.90;99.90
11136;DHT22;5622;50.840;4.948;2022-12-29T15:45:14;8.90;99.90
11136;DHT22;5622;50.840;4.948;2022-12-29T15:47:43;8.90;99.90
11136;DHT22;5622;50.840;4.948;2022-12-29T15:50:22;8.90;99.90
11136;DHT22;5622;50.840;4.948;2022-12-29T15:52:50;8.90;99.90
11136;DHT22;5622;50.840;4.948;2022-12-29T15:55:21;9.00;99.90
11136;DHT22;5622;50.840;4.948;2022-12-29T15:57:49;9.00;99.90
11136;DHT22;5622;50.840;4.948;2022-12-29T16:00:24;9.00;99.90
11136;DHT22;5622;50.840;4.948;2022-12-29T16:02:53;9.00;99.90
11136;DHT22;5622;50.840;4.948;2022-12-29T16:05:22;9.00;99.90
11136;DHT22;5622;50.840;4.948;2022-12-29T16:07:54;8.90;99.90
11136;DHT22;5622;50.840;4.948;2022-12-29T16:10:32;8.80;99.90
11136;DHT22;5622;50.840;4.948;2022-12-29T16:13:06;8.80;99.90
11136;DHT22;5622;50.840;4.948;2022-12-29T16:15:39;8.70;99.90
11136;DHT22;5622;50.840;4.948;2022-12-29T16:18:21;8.60;99.90
11136;DHT22;5622;50.840;4.948;2022-12-29T16:20:52;8.50;99.90
11136;DHT22;5622;50.840;4.948;2022-12-29T16:23:22;8.50;99.90
11136;DHT22;5622;50.840;4.948;2022-12-29T16:25:51;8.40;99.90
11136;DHT22;5622;50.840;4.948;2022-12-29T16:28:22;8.30;99.90
11136;DHT22;5622;50.840;4.948;2022-12-29T16:30:58;8.30;99.90
11136;DHT22;5622;50.840;4.948;2022-12-29T16:33:45;8.30;99.90
11136;DHT22;5622;50.840;4.948;2022-12-29T16:36:29;8.20;99.90
11136;DHT22;5622;50.840;4.948;2022-12-29T16:39:23;8.20;99.90